createdAt,value
2019-02-19T00:00:07.938Z,35.03
2019-02-19T00:02:34.657Z,36.57
2019-02-19T00:05:01.150Z,37.87
2019-02-19T00:07:27.619Z,37.17
2019-02-19T00:09:54.143Z,37.87
2019-02-19T00:12:20.611Z,37.13
2019-02-19T00:14:47.118Z,38.57
2019-02-19T00:17:13.620Z,39.17
2019-02-19T00:19:40.091Z,40.27
2019-02-19T00:22:06.680Z,41.23
2019-02-19T00:24:33.208Z,40.53
2019-02-19T00:26:59.668Z,42.23
2019-02-19T00:29:26.237Z,40.90
2019-02-19T00:31:52.776Z,41.83
2019-02-19T00:34:19.329Z,40.60
2019-02-19T00:36:45.891Z,42.33
2019-02-19T00:39:12.729Z,41.97
2019-02-19T00:41:39.214Z,43.47
2019-02-19T00:44:05.804Z,44.03
2019-02-19T00:46:32.644Z,42.60
2019-02-19T00:49:01.025Z,42.67
2019-02-19T00:51:27.554Z,42.97
2019-02-19T00:53:54.330Z,42.73
2019-02-19T00:56:20.840Z,45.03
2019-02-19T00:58:47.370Z,44.17
2019-02-19T01:01:13.875Z,44.57
2019-02-19T01:03:40.334Z,44.60
2019-02-19T01:06:06.841Z,44.23
2019-02-19T01:08:33.351Z,43.70
2019-02-19T01:10:59.879Z,46.47
2019-02-19T01:13:28.017Z,43.20
2019-02-19T01:15:54.534Z,44.07
2019-02-19T01:18:21.014Z,43.70
2019-02-19T01:20:47.489Z,43.30
2019-02-19T01:23:14.062Z,42.00
2019-02-19T01:25:40.534Z,43.17
2019-02-19T01:28:07.036Z,44.37
2019-02-19T01:30:33.539Z,45.00
2019-02-19T01:33:00.161Z,43.27
2019-02-19T01:35:26.903Z,43.33
2019-02-19T01:37:53.430Z,42.93
2019-02-19T01:40:19.930Z,43.03
2019-02-19T01:42:46.617Z,42.33
2019-02-19T01:45:13.652Z,41.23
2019-02-19T01:47:40.497Z,43.70
2019-02-19T01:50:07.015Z,42.17
2019-02-19T01:52:33.460Z,43.93
2019-02-19T01:54:59.953Z,42.60
2019-02-19T01:57:26.469Z,43.03
2019-02-19T01:59:53.013Z,43.47
2019-02-19T02:02:19.493Z,44.90
2019-02-19T02:04:46.047Z,43.43
2019-02-19T02:07:12.583Z,42.87
2019-02-19T02:09:39.420Z,43.67
2019-02-19T02:12:05.939Z,42.57
2019-02-19T02:14:32.396Z,44.17
2019-02-19T02:16:58.864Z,42.70
2019-02-19T02:19:25.339Z,44.07
2019-02-19T02:21:51.811Z,41.83
2019-02-19T02:24:18.345Z,44.53
2019-02-19T02:26:44.855Z,44.13
2019-02-19T02:29:11.357Z,43.77
2019-02-19T02:31:37.857Z,40.53
2019-02-19T02:34:04.353Z,43.93
2019-02-19T02:36:30.920Z,43.73
2019-02-19T02:38:57.533Z,43.17
2019-02-19T02:41:24.074Z,44.20
2019-02-19T02:43:50.519Z,43.37
2019-02-19T02:46:17.028Z,42.57
2019-02-19T02:48:43.680Z,42.50
2019-02-19T02:51:10.166Z,41.80
2019-02-19T02:53:36.656Z,43.27
2019-02-19T02:56:03.156Z,42.97
2019-02-19T02:58:29.647Z,42.63
2019-02-19T03:00:56.159Z,43.53
2019-02-19T03:03:22.645Z,42.80
2019-02-19T03:05:49.410Z,41.33
2019-02-19T03:08:15.858Z,42.27
2019-02-19T03:10:42.392Z,43.70
2019-02-19T03:13:08.862Z,41.33
2019-02-19T03:15:35.340Z,41.97
2019-02-19T03:18:01.950Z,41.13
2019-02-19T03:20:28.588Z,43.33
2019-02-19T03:22:55.089Z,42.97
2019-02-19T03:25:21.580Z,40.10
2019-02-19T03:27:48.127Z,42.20
2019-02-19T03:30:14.655Z,41.53
2019-02-19T03:32:41.168Z,41.77
2019-02-19T03:35:07.771Z,41.50
2019-02-19T03:37:34.254Z,41.20
2019-02-19T03:40:00.765Z,40.17
2019-02-19T03:42:27.264Z,40.90
2019-02-19T03:44:54.983Z,41.47
2019-02-19T03:47:21.733Z,40.37
2019-02-19T03:49:48.242Z,40.77
2019-02-19T03:52:14.746Z,40.40
2019-02-19T03:54:41.232Z,41.07
2019-02-19T03:57:07.846Z,40.63
2019-02-19T03:59:34.333Z,41.13
2019-02-19T04:02:00.799Z,39.70
2019-02-19T04:04:27.361Z,40.40
2019-02-19T04:06:53.844Z,39.77
2019-02-19T04:09:20.308Z,41.47
2019-02-19T04:11:46.987Z,40.63
2019-02-19T04:14:13.500Z,40.60
2019-02-19T04:16:39.991Z,38.93
2019-02-19T04:19:06.541Z,39.30
2019-02-19T04:21:32.998Z,38.00
2019-02-19T04:23:59.461Z,39.53
2019-02-19T04:26:26.015Z,39.13
2019-02-19T04:28:52.503Z,37.10
2019-02-19T04:31:19.000Z,38.50
2019-02-19T04:33:45.760Z,38.80
2019-02-19T04:36:12.230Z,40.07
2019-02-19T04:38:38.703Z,39.27
2019-02-19T04:41:05.274Z,38.70
2019-02-19T04:43:31.755Z,39.13
2019-02-19T04:45:58.554Z,39.23
2019-02-19T04:48:25.087Z,38.67
2019-02-19T04:50:51.577Z,39.33
2019-02-19T04:53:18.052Z,39.30
2019-02-19T04:55:44.604Z,38.80
2019-02-19T04:58:11.139Z,38.33
2019-02-19T05:00:37.634Z,37.67
2019-02-19T05:03:04.118Z,38.23
2019-02-19T05:05:30.587Z,38.13
2019-02-19T05:07:57.155Z,38.30
2019-02-19T05:10:23.659Z,37.37
2019-02-19T05:12:50.163Z,38.37
2019-02-19T05:15:16.643Z,36.23
2019-02-19T05:17:43.202Z,36.77
2019-02-19T05:20:09.754Z,38.33
2019-02-19T05:22:36.261Z,37.37
2019-02-19T05:25:02.742Z,36.23
2019-02-19T05:27:29.209Z,36.17
2019-02-19T05:29:55.708Z,36.10
2019-02-19T05:32:22.254Z,37.13
2019-02-19T05:34:48.712Z,35.87
2019-02-19T05:37:15.227Z,34.57
2019-02-19T05:39:41.704Z,34.57
2019-02-19T05:42:08.146Z,34.13
2019-02-19T05:44:35.147Z,36.43
2019-02-19T05:47:01.916Z,34.57
2019-02-19T05:49:28.445Z,33.77
2019-02-19T05:51:55.454Z,29.63
2019-02-19T05:54:22.223Z,30.73
2019-02-19T05:56:48.991Z,31.40
2019-02-19T05:59:15.414Z,29.07
2019-02-19T06:01:41.941Z,30.37
2019-02-19T06:04:08.444Z,31.33
2019-02-19T06:06:35.109Z,30.27
2019-02-19T06:09:01.650Z,29.43
2019-02-19T06:11:28.152Z,30.13
2019-02-19T06:13:54.615Z,30.23
2019-02-19T06:16:21.143Z,30.83
2019-02-19T06:18:47.727Z,31.33
2019-02-19T06:21:14.247Z,30.90
2019-02-19T06:23:40.766Z,30.77
2019-02-19T06:26:07.323Z,31.70
2019-02-19T06:28:33.896Z,31.00
2019-02-19T06:31:00.403Z,30.53
2019-02-19T06:33:26.939Z,30.63
2019-02-19T06:35:53.415Z,29.93
2019-02-19T06:38:19.869Z,30.10
2019-02-19T06:40:46.390Z,32.00
2019-02-19T06:43:12.890Z,33.13
2019-02-19T06:45:39.410Z,33.20
2019-02-19T06:48:05.895Z,35.10
2019-02-19T06:50:32.401Z,35.80
2019-02-19T06:52:58.870Z,35.80
2019-02-19T06:55:25.386Z,35.80
2019-02-19T06:57:51.913Z,35.20
2019-02-19T07:00:18.399Z,35.57
2019-02-19T07:02:44.868Z,36.10
2019-02-19T07:05:11.370Z,36.73
2019-02-19T07:07:37.856Z,35.27
2019-02-19T07:10:04.401Z,35.97
2019-02-19T07:12:30.867Z,36.63
2019-02-19T07:14:57.338Z,35.07
2019-02-19T07:17:23.807Z,34.70
2019-02-19T07:19:50.282Z,32.87
2019-02-19T07:22:16.805Z,31.70
2019-02-19T07:24:43.316Z,30.77
2019-02-19T07:27:09.850Z,30.13
2019-02-19T07:29:36.271Z,30.13
2019-02-19T07:32:02.738Z,27.77
2019-02-19T07:34:29.299Z,28.83
2019-02-19T07:36:55.961Z,28.03
2019-02-19T07:39:22.500Z,26.50
2019-02-19T07:41:49.039Z,26.50
2019-02-19T07:44:15.870Z,25.67
2019-02-19T07:46:42.396Z,26.33
2019-02-19T07:49:08.906Z,25.17
2019-02-19T07:51:35.397Z,27.33
2019-02-19T07:54:01.884Z,27.27
2019-02-19T07:56:28.544Z,27.77
2019-02-19T07:58:55.063Z,28.73
2019-02-19T08:01:21.561Z,29.37
2019-02-19T08:03:48.033Z,29.60
2019-02-19T08:06:14.529Z,30.70
2019-02-19T08:08:41.198Z,31.17
2019-02-19T08:11:08.172Z,31.67
2019-02-19T08:13:34.645Z,31.13
2019-02-19T08:16:01.132Z,31.37
2019-02-19T08:18:27.596Z,31.83
2019-02-19T08:20:54.098Z,32.70
2019-02-19T08:23:20.647Z,31.40
2019-02-19T08:25:47.264Z,31.83
2019-02-19T08:28:13.718Z,31.87
2019-02-19T08:30:40.221Z,28.83
2019-02-19T08:33:06.707Z,30.17
2019-02-19T08:35:33.264Z,29.00
2019-02-19T08:37:59.752Z,29.93
2019-02-19T08:40:26.218Z,30.73
2019-02-19T08:42:52.711Z,29.90
2019-02-19T08:45:19.197Z,30.53
2019-02-19T08:47:45.722Z,30.80
2019-02-19T08:50:12.219Z,30.47
2019-02-19T08:52:38.836Z,29.83
2019-02-19T08:55:05.323Z,30.00
2019-02-19T08:57:31.848Z,31.33
2019-02-19T08:59:58.375Z,30.00
2019-02-19T09:02:24.874Z,29.43
2019-02-19T09:04:51.364Z,28.83
2019-02-19T09:07:18.046Z,29.97
2019-02-19T09:09:47.453Z,30.07
2019-02-19T09:12:13.962Z,30.27
2019-02-19T09:14:40.434Z,29.03
2019-02-19T09:17:06.945Z,29.63
2019-02-19T09:19:33.483Z,31.43
2019-02-19T09:22:00.326Z,28.27
2019-02-19T09:24:26.857Z,28.57
2019-02-19T09:26:53.325Z,29.50
2019-02-19T09:29:19.806Z,29.20
2019-02-19T09:31:46.314Z,29.00
2019-02-19T09:34:12.799Z,29.20
2019-02-19T09:36:39.409Z,29.17
2019-02-19T09:39:05.945Z,28.33
2019-02-19T09:41:32.421Z,29.00
2019-02-19T09:43:58.924Z,28.97
2019-02-19T09:46:25.378Z,28.03
2019-02-19T09:48:51.996Z,28.40
2019-02-19T09:51:18.734Z,28.37
2019-02-19T09:53:45.183Z,29.37
2019-02-19T09:56:11.805Z,27.83
2019-02-19T09:58:38.339Z,28.90
2019-02-19T10:01:05.179Z,26.63
2019-02-19T10:03:32.017Z,27.47
2019-02-19T10:05:58.477Z,27.60
2019-02-19T10:08:24.986Z,28.60
2019-02-19T10:10:51.442Z,27.17
2019-02-19T10:13:18.014Z,26.37
2019-02-19T10:15:44.494Z,27.23
2019-02-19T10:18:11.056Z,28.30
2019-02-19T10:20:37.508Z,25.97
2019-02-19T10:23:04.017Z,27.43
2019-02-19T10:25:30.582Z,28.43
2019-02-19T10:27:57.043Z,27.07
2019-02-19T10:30:23.514Z,25.93
2019-02-19T10:32:50.010Z,26.60
2019-02-19T10:35:16.495Z,27.17
2019-02-19T10:37:43.102Z,26.43
2019-02-19T10:40:09.733Z,24.73
2019-02-19T10:42:36.327Z,25.47
2019-02-19T10:45:02.828Z,25.33
2019-02-19T10:47:29.314Z,24.43
2019-02-19T10:49:56.175Z,24.83
2019-02-19T10:52:22.672Z,24.60
2019-02-19T10:54:49.155Z,23.43
2019-02-19T10:57:15.622Z,24.17
2019-02-19T10:59:42.651Z,22.73
2019-02-19T11:02:09.482Z,23.03
2019-02-19T11:04:36.001Z,24.37
2019-02-19T11:07:02.493Z,20.50
2019-02-19T11:09:29.062Z,20.73
2019-02-19T11:11:55.543Z,22.53
2019-02-19T11:14:22.104Z,21.33
2019-02-19T11:16:48.643Z,21.40
2019-02-19T11:19:15.168Z,21.73
2019-02-19T11:21:43.625Z,20.67
2019-02-19T11:24:10.485Z,20.43
2019-02-19T11:26:37.183Z,20.93
2019-02-19T11:29:03.832Z,19.77
2019-02-19T11:31:30.315Z,20.43
2019-02-19T11:33:56.820Z,20.10
2019-02-19T11:36:23.310Z,18.63
2019-02-19T11:38:49.841Z,19.00
2019-02-19T11:41:16.323Z,18.50
2019-02-19T11:43:42.786Z,19.40
2019-02-19T11:46:09.537Z,17.90
2019-02-19T11:48:37.133Z,17.67
2019-02-19T11:51:04.142Z,17.77
2019-02-19T11:53:30.676Z,17.02
2019-02-19T11:55:57.164Z,17.85
2019-02-19T11:58:23.655Z,18.67
2019-02-19T12:00:50.129Z,15.63
2019-02-19T12:03:16.710Z,16.90
2019-02-19T12:05:43.196Z,16.32
2019-02-19T12:08:09.687Z,17.10
2019-02-19T12:10:36.193Z,17.17
2019-02-19T12:13:02.665Z,16.27
2019-02-19T12:15:34.922Z,15.55
2019-02-19T12:17:57.471Z,15.93
2019-02-19T12:20:23.937Z,15.40
2019-02-19T12:22:50.622Z,16.02
2019-02-19T12:25:17.074Z,16.00
2019-02-19T12:27:43.648Z,16.70
2019-02-19T12:30:10.110Z,17.15
2019-02-19T12:32:36.607Z,20.92
2019-02-19T12:35:03.079Z,20.55
2019-02-19T12:37:29.569Z,20.52
2019-02-19T12:39:56.158Z,20.27
2019-02-19T12:42:22.629Z,19.52
2019-02-19T12:44:49.089Z,18.67
2019-02-19T12:47:15.625Z,18.48
2019-02-19T12:49:42.107Z,17.77
2019-02-19T12:52:08.670Z,17.52
2019-02-19T12:54:35.268Z,17.15
2019-02-19T12:57:01.798Z,18.13
2019-02-19T12:59:28.333Z,16.75
2019-02-19T13:01:54.869Z,17.57
2019-02-19T13:04:21.709Z,16.70
2019-02-19T13:06:48.166Z,16.80
2019-02-19T13:09:14.645Z,16.65
2019-02-19T13:11:41.106Z,16.30
2019-02-19T13:14:07.597Z,16.52
2019-02-19T13:16:34.148Z,15.45
2019-02-19T13:19:03.421Z,17.12
2019-02-19T13:21:28.735Z,15.65
2019-02-19T13:23:55.202Z,15.90
2019-02-19T13:26:21.710Z,14.23
2019-02-19T13:28:48.251Z,15.08
2019-02-19T13:31:14.747Z,14.25
2019-02-19T13:33:41.214Z,15.03
2019-02-19T13:36:07.698Z,14.05
2019-02-19T13:38:34.169Z,13.83
2019-02-19T13:41:00.712Z,15.03
2019-02-19T13:43:27.471Z,14.43
2019-02-19T13:45:53.977Z,14.95
2019-02-19T13:48:20.447Z,13.83
2019-02-19T13:50:46.954Z,13.95
2019-02-19T13:53:13.667Z,12.70
2019-02-19T13:55:40.469Z,13.60
2019-02-19T13:58:06.964Z,13.08
2019-02-19T14:00:33.434Z,12.73
2019-02-19T14:02:59.908Z,12.78
2019-02-19T14:05:26.454Z,13.00
2019-02-19T14:07:52.943Z,12.18
2019-02-19T14:10:19.431Z,13.30
2019-02-19T14:12:45.902Z,13.68
2019-02-19T14:15:12.371Z,13.53
2019-02-19T14:17:38.889Z,12.70
2019-02-19T14:20:05.415Z,13.32
2019-02-19T14:22:31.878Z,14.40
2019-02-19T14:24:58.586Z,13.65
2019-02-19T14:27:25.113Z,13.40
2019-02-19T14:29:51.955Z,13.95
2019-02-19T14:32:18.483Z,13.97
2019-02-19T14:34:45.025Z,13.50
2019-02-19T14:37:12.785Z,12.25
2019-02-19T14:39:39.446Z,13.43
2019-02-19T14:42:06.016Z,12.95
2019-02-19T14:44:32.479Z,12.58
2019-02-19T14:46:58.942Z,13.40
2019-02-19T14:49:36.615Z,12.80
2019-02-19T14:51:53.841Z,12.03
2019-02-19T14:54:20.375Z,13.80
2019-02-19T14:56:46.799Z,13.25
2019-02-19T14:59:13.295Z,12.77
2019-02-19T15:01:39.774Z,12.80
2019-02-19T15:04:06.236Z,12.80
2019-02-19T15:06:32.795Z,12.67
2019-02-19T15:08:59.580Z,13.27
2019-02-19T15:11:34.827Z,13.15
2019-02-19T15:14:01.319Z,13.30
2019-02-19T15:16:27.801Z,13.13
2019-02-19T15:18:54.630Z,13.77
2019-02-19T15:21:21.130Z,13.03
2019-02-19T15:23:47.610Z,12.87
2019-02-19T15:26:14.103Z,13.15
2019-02-19T15:28:40.580Z,12.90
2019-02-19T15:31:07.056Z,12.77
2019-02-19T15:33:33.825Z,12.83
2019-02-19T15:36:00.368Z,12.03
2019-02-19T15:38:26.865Z,12.70
2019-02-19T15:40:53.328Z,11.93
2019-02-19T15:43:19.838Z,12.20
2019-02-19T15:45:46.342Z,11.80
2019-02-19T15:48:12.937Z,11.37
2019-02-19T15:50:39.421Z,10.87
2019-02-19T15:53:05.924Z,11.20
2019-02-19T15:55:32.521Z,10.63
2019-02-19T15:58:04.517Z,10.75
2019-02-19T16:00:27.196Z,11.27
2019-02-19T16:02:53.689Z,10.90
2019-02-19T16:05:20.187Z,10.37
2019-02-19T16:07:46.856Z,9.67
2019-02-19T16:10:13.310Z,9.30
2019-02-19T16:12:39.885Z,10.32
2019-02-19T16:15:06.346Z,10.07
2019-02-19T16:17:32.854Z,9.50
2019-02-19T16:19:59.311Z,10.37
2019-02-19T16:22:25.782Z,9.97
2019-02-19T16:24:52.359Z,9.53
2019-02-19T16:27:18.841Z,9.43
2019-02-19T16:29:45.306Z,9.13
2019-02-19T16:32:11.807Z,9.30
2019-02-19T16:34:38.322Z,10.60
2019-02-19T16:37:04.967Z,9.77
2019-02-19T16:39:31.430Z,9.43
2019-02-19T16:41:57.940Z,9.90
2019-02-19T16:44:24.457Z,10.27
2019-02-19T16:46:51.107Z,9.17
2019-02-19T16:49:18.088Z,9.13
2019-02-19T16:51:44.777Z,9.63
2019-02-19T16:54:11.700Z,9.80
2019-02-19T16:56:38.271Z,9.40
2019-02-19T16:59:07.503Z,9.70
2019-02-19T17:01:33.161Z,10.23
2019-02-19T17:03:59.810Z,9.37
2019-02-19T17:06:26.467Z,10.47
2019-02-19T17:08:53.105Z,10.10
2019-02-19T17:11:19.712Z,9.70
2019-02-19T17:13:46.688Z,9.57
2019-02-19T17:16:13.401Z,9.57
2019-02-19T17:18:40.095Z,9.07
2019-02-19T17:21:06.803Z,9.07
2019-02-19T17:23:33.512Z,9.50
2019-02-19T17:26:00.208Z,9.60
2019-02-19T17:28:26.952Z,8.83
2019-02-19T17:30:53.637Z,8.73
2019-02-19T17:33:20.394Z,9.50
2019-02-19T17:35:47.069Z,8.63
2019-02-19T17:38:14.973Z,8.83
2019-02-19T17:40:41.708Z,8.83
2019-02-19T17:43:08.492Z,8.37
2019-02-19T17:45:36.002Z,9.40
2019-02-19T17:48:03.637Z,8.30
2019-02-19T17:50:38.126Z,9.20
2019-02-19T17:52:58.819Z,8.43
2019-02-19T17:55:25.562Z,8.37
2019-02-19T17:57:52.302Z,8.10
2019-02-19T18:00:19.018Z,8.77
2019-02-19T18:02:45.806Z,8.30
2019-02-19T18:05:12.528Z,7.87
2019-02-19T18:07:39.354Z,8.63
2019-02-19T18:10:06.085Z,8.17
2019-02-19T18:12:33.108Z,8.60
2019-02-19T18:14:59.850Z,8.30
2019-02-19T18:17:26.484Z,8.83
2019-02-19T18:19:53.038Z,8.93
2019-02-19T18:22:19.511Z,9.23
2019-02-19T18:24:46.291Z,8.10
2019-02-19T18:27:12.879Z,9.10
2019-02-19T18:29:39.399Z,9.20
2019-02-19T18:32:05.898Z,8.47
2019-02-19T18:34:32.459Z,9.07
2019-02-19T18:36:59.051Z,8.53
2019-02-19T18:39:25.808Z,8.70
2019-02-19T18:41:52.339Z,8.33
2019-02-19T18:44:18.875Z,9.10
2019-02-19T18:46:45.411Z,9.07
2019-02-19T18:49:11.870Z,9.00
2019-02-19T18:51:38.450Z,9.83
2019-02-19T18:54:04.913Z,8.57
2019-02-19T18:56:31.419Z,9.07
2019-02-19T18:58:57.933Z,9.27
2019-02-19T19:01:24.427Z,9.70
2019-02-19T19:03:50.998Z,9.07
2019-02-19T19:06:18.346Z,8.80
2019-02-19T19:08:44.996Z,9.83
2019-02-19T19:11:11.757Z,9.50
2019-02-19T19:13:38.261Z,9.47
2019-02-19T19:16:04.818Z,9.47
2019-02-19T19:18:31.319Z,9.47
2019-02-19T19:20:57.816Z,9.73
2019-02-19T19:23:24.319Z,9.57
2019-02-19T19:25:50.886Z,9.70
2019-02-19T19:28:17.737Z,9.23
2019-02-19T19:30:44.262Z,9.63
2019-02-19T19:33:10.804Z,9.13
2019-02-19T19:35:37.330Z,9.80
2019-02-19T19:38:04.178Z,9.90
2019-02-19T19:40:30.802Z,9.90
2019-02-19T19:42:57.553Z,10.27
2019-02-19T19:45:24.080Z,9.10
2019-02-19T19:47:50.918Z,9.53
2019-02-19T19:50:17.370Z,9.87
2019-02-19T19:52:44.001Z,9.90
2019-02-19T19:55:10.525Z,9.83
2019-02-19T19:57:37.374Z,10.17
2019-02-19T20:00:03.911Z,10.07
2019-02-19T20:02:30.742Z,9.60
2019-02-19T20:04:57.582Z,9.70
2019-02-19T20:07:24.115Z,9.30
2019-02-19T20:09:50.659Z,10.40
2019-02-19T20:12:17.197Z,10.57
2019-02-19T20:14:43.682Z,10.87
2019-02-19T20:17:10.235Z,10.60
2019-02-19T20:19:36.711Z,10.10
2019-02-19T20:22:03.200Z,10.17
2019-02-19T20:24:29.702Z,10.20
2019-02-19T20:26:56.196Z,10.40
2019-02-19T20:29:22.868Z,11.37
2019-02-19T20:31:49.419Z,10.67
2019-02-19T20:34:15.895Z,11.47
2019-02-19T20:36:42.375Z,10.40
2019-02-19T20:39:08.968Z,10.60
2019-02-19T20:41:35.588Z,10.63
2019-02-19T20:44:03.718Z,10.37
2019-02-19T20:46:30.278Z,10.67
2019-02-19T20:48:56.892Z,11.00
2019-02-19T20:51:23.358Z,10.50
2019-02-19T20:53:49.992Z,11.90
2019-02-19T20:56:16.815Z,11.57
2019-02-19T20:58:43.302Z,10.87
2019-02-19T21:01:09.825Z,11.00
2019-02-19T21:03:36.307Z,11.37
2019-02-19T21:06:02.841Z,10.97
2019-02-19T21:08:29.311Z,10.83
2019-02-19T21:10:55.860Z,11.10
2019-02-19T21:13:22.380Z,11.90
2019-02-19T21:15:48.934Z,11.60
2019-02-19T21:18:15.767Z,11.23
2019-02-19T21:20:42.303Z,11.23
2019-02-19T21:23:09.143Z,11.67
2019-02-19T21:25:35.599Z,11.87
2019-02-19T21:28:02.323Z,11.87
2019-02-19T21:30:28.974Z,11.80
2019-02-19T21:32:55.417Z,11.70
2019-02-19T21:35:21.919Z,12.53
2019-02-19T21:37:48.392Z,12.20
2019-02-19T21:40:15.177Z,12.07
2019-02-19T21:42:41.934Z,12.67
2019-02-19T21:45:08.597Z,11.70
2019-02-19T21:47:35.246Z,12.53
2019-02-19T21:50:01.740Z,12.43
2019-02-19T21:52:28.372Z,11.47
2019-02-19T21:54:55.017Z,12.43
2019-02-19T21:57:21.468Z,11.40
2019-02-19T21:59:47.978Z,11.90
2019-02-19T22:02:16.437Z,11.90
2019-02-19T22:04:42.582Z,12.87
2019-02-19T22:07:09.152Z,12.23
2019-02-19T22:09:35.759Z,12.07
2019-02-19T22:12:02.288Z,10.90
2019-02-19T22:14:29.128Z,12.87
2019-02-19T22:16:55.577Z,11.90
2019-02-19T22:19:22.094Z,11.37
2019-02-19T22:21:48.603Z,11.80
2019-02-19T22:24:15.062Z,11.50
2019-02-19T22:26:41.586Z,11.30
2019-02-19T22:29:08.090Z,10.97
2019-02-19T22:31:34.624Z,10.30
2019-02-19T22:34:01.113Z,9.87
2019-02-19T22:36:27.564Z,9.60
2019-02-19T22:38:54.177Z,9.57
2019-02-19T22:41:20.645Z,9.43
2019-02-19T22:43:47.189Z,9.23
2019-02-19T22:46:13.702Z,9.17
2019-02-19T22:48:40.144Z,8.83
2019-02-19T22:51:06.618Z,8.57
2019-02-19T22:53:33.392Z,8.10
2019-02-19T22:56:00.184Z,8.80
2019-02-19T22:58:26.755Z,8.33
2019-02-19T23:00:53.215Z,8.20
2019-02-19T23:03:19.763Z,8.70
2019-02-19T23:05:46.277Z,8.20
2019-02-19T23:08:12.806Z,8.03
2019-02-19T23:10:39.289Z,7.57
2019-02-19T23:13:05.784Z,7.60
2019-02-19T23:15:32.291Z,7.50
2019-02-19T23:17:58.746Z,7.03
2019-02-19T23:20:25.310Z,8.00
2019-02-19T23:22:51.808Z,7.63
2019-02-19T23:25:18.261Z,7.83
2019-02-19T23:27:44.738Z,7.27
2019-02-19T23:30:11.297Z,6.80
2019-02-19T23:32:37.846Z,7.13
2019-02-19T23:35:04.313Z,6.87
2019-02-19T23:37:30.790Z,7.00
2019-02-19T23:39:57.263Z,6.37
2019-02-19T23:42:23.768Z,6.60
2019-02-19T23:44:53.105Z,6.63
2019-02-19T23:47:20.174Z,6.27
2019-02-19T23:49:46.650Z,6.40
2019-02-19T23:52:13.278Z,5.50
2019-02-19T23:54:40.113Z,5.90
2019-02-19T23:57:07.049Z,5.50
2019-02-19T23:59:33.496Z,5.70
